Nearby METAR Reports

 

KSFO - San Francisco, California, USA
Distance from station: NNW 8km
Updated: Mon, 21-Aug-2017 7:56pm PDT
Mostly cloudy
Mostly cloudy
 Wind from WNW
Wind: WNW 15 mph , 24 km/h
Temperature: 64°F , 18°C
Dew Point: 55°F , 13°C
Humidity: 73%
Barometer: 30.00 inHg , 1015.9 hPa
Clouds: Mostly cloudy
Visibility: 10 miles , 16 km
Cloud details: Few Clouds 1200 ft
Mostly cloudy 2500 ft
2017/08/22 02:56 KSFO 220256Z 29013KT 10SM FEW012 BKN025 18/13 A3000 RMK AO2 SLP157 T01830128 50000
KSQL - San Carlos Airpo, California, USA
Distance from station: ESE 8km
Updated: Mon, 21-Aug-2017 7:51pm PDT
Mostly cloudy
Mostly cloudy
 Wind from NW
Wind: NW 9 mph , 15 km/h
Temperature: 66°F , 19°C
Dew Point: 57°F , 14°C
Humidity: 73%
Barometer: 29.99 inHg , 1015.6 hPa
Clouds: Mostly cloudy
Visibility: 10 miles , 16 km
Cloud details: Few Clouds 1500 ft
Mostly cloudy 15000 ft
2017/08/22 02:51 KSQL 220251Z 31008KT 10SM FEW015 BKN150 19/14 A2999
 
KHAF - Half Moon Bay, California, USA
Distance from station: WSW 15km
Updated: Mon, 21-Aug-2017 8:15pm PDT
Overcast
Overcast
 Wind from calm
Wind: Calm
Temperature: 63°F , 17°C
Barometer: 30.00 inHg , 1015.9 hPa
Clouds: Overcast
Visibility: 10 miles , 16 km
Cloud details: Overcast 1600 ft
2017/08/22 03:15 KHAF 220315Z AUTO 00000KT 10SM OVC016 17/ A3000 RMK AO2
KOAK - Oakland, California, USA
Distance from station: NNE 21km
Updated: Mon, 21-Aug-2017 7:53pm PDT
Mostly cloudy
Mostly cloudy
 Wind from WNW
Wind: WNW 16 mph , 26 km/h
Temperature: 64°F , 18°C
Dew Point: 59°F , 15°C
Humidity: 83%
Barometer: 30.00 inHg , 1015.9 hPa
Clouds: Mostly cloudy
Visibility: 10 miles , 16 km
Cloud details: Few Clouds 1800 ft
Mostly cloudy 18000 ft
Mostly cloudy 22000 ft
2017/08/22 02:53 KOAK 220253Z 30014KT 10SM FEW018 BKN180 BKN220 18/15 A3000 RMK AO2 SLP158 T01780150 58002
 
KPAO - Palo Alto, California, USA
Distance from station: ESE 21km
Updated: Mon, 21-Aug-2017 7:47pm PDT
Partly cloudy
Partly cloudy
 Wind from NNW
Wind: NNW 12 mph , 19 km/h
Temperature: 68°F , 20°C
Dew Point: 61°F , 16°C
Humidity: 78%
Barometer: 29.99 inHg , 1015.6 hPa
Clouds: Partly cloudy
Visibility: 10 miles , 16 km
Cloud details: Partly cloudy 14000 ft
2017/08/22 02:47 KPAO 220247Z 33010KT 10SM SCT140 20/16 A2999
KHWD - Hayward, California, USA
Distance from station: NE 23km
Updated: Mon, 21-Aug-2017 7:54pm PDT
Clear
Clear
 Wind from NNW
Wind: NNW 15 mph , 24 km/h
Temperature: 66°F , 19°C
Dew Point: 55°F , 13°C
Humidity: 68%
Barometer: 29.99 inHg , 1015.6 hPa
Clouds: Clear
Visibility: 10 miles , 16 km
2017/08/22 02:54 KHWD 220254Z 33013KT 10SM CLR 19/13 A2999 RMK AO2 SLP164 T01890128 58003
 
KNUQ - Moffett Nas/Mtn, California, USA
Distance from station: ESE 30km
Updated: Mon, 21-Aug-2017 7:56pm PDT
Clear
Clear
 Wind from N
Wind: N 16 mph , 26 km/h
Temperature: 68°F , 20°C
Dew Point: 61°F , 16°C
Humidity: 78%
Barometer: 30.00 inHg , 1015.9 hPa
Clouds: Clear
Visibility: 10 miles , 16 km
2017/08/22 02:56 KNUQ 220256Z 01014KT 10SM CLR 20/16 A3000 RMK AO2 SLP161 T02000156 53004
KSJC - San Jose, California, USA
Distance from station: ESE 42km
Updated: Mon, 21-Aug-2017 7:53pm PDT
Partly cloudy
Partly cloudy
 Wind from WNW
Wind: WNW 13 mph , 20 km/h
Temperature: 70°F , 21°C
Dew Point: 59°F , 15°C
Humidity: 69%
Barometer: 29.99 inHg , 1015.6 hPa
Clouds: Partly cloudy
Visibility: 10 miles , 16 km
Cloud details: Few Clouds 900 ft
Partly cloudy 8000 ft
Partly cloudy 16000 ft
2017/08/22 02:53 KSJC 220253Z 30011KT 10SM FEW009 SCT080 SCT160 21/15 A2999 RMK AO2 SLP155 T02060150 53006
 
KLVK - Livermore, California, USA
Distance from station: ENE 49km
Updated: Mon, 21-Aug-2017 7:53pm PDT
Few Clouds
Few Clouds
 Wind from W
Wind: W 14 mph , 22 km/h
Temperature: 68°F , 20°C
Dew Point: 57°F , 14°C
Humidity: 69%
Barometer: 29.97 inHg , 1014.9 hPa
Clouds: Few Clouds
Visibility: 10 miles , 16 km
Cloud details: Few Clouds 10000 ft
2017/08/22 02:53 KLVK 220253Z 26012KT 10SM FEW100 20/14 A2997 RMK AO2 SLP146 T02000139 53002 $
KRHV - San Jose/Reid, California, USA
Distance from station: ESE 53km
Updated: Mon, 21-Aug-2017 7:50pm PDT
Mostly cloudy
Mostly cloudy
 Wind from NNW
Wind: NNW 6 mph , 9 km/h
Temperature: 70°F , 21°C
Dew Point: 59°F , 15°C
Humidity: 69%
Barometer: 30.01 inHg , 1016.3 hPa
Clouds: Mostly cloudy
Visibility: 10 miles , 16 km
Cloud details: Mostly cloudy 14000 ft
2017/08/22 02:50 KRHV 220250Z 33005KT 10SM BKN140 21/15 A3001
 
KCCR - Concord, California, USA
Distance from station: NNE 56km
Updated: Mon, 21-Aug-2017 7:53pm PDT
Partly cloudy
Partly cloudy
 Wind from WSW
Wind: WSW 14 mph , 22 km/h
Temperature: 66°F , 19°C
Dew Point: 57°F , 14°C
Humidity: 73%
Barometer: 29.98 inHg , 1015.2 hPa
Clouds: Partly cloudy
Visibility: 10 miles , 16 km
Cloud details: Partly cloudy 4000 ft
2017/08/22 02:53 KCCR 220253Z 25012KT 10SM SCT040 19/14 A2998 RMK AO2 SLP140 T01940139 50003
KDVO - Novato/Gnoss Fld, California, USA
Distance from station: NNW 70km
Updated: Mon, 21-Aug-2017 8:15pm PDT
Clear
Clear
 Wind from varies
Wind: varies 5 mph , 7 km/h
Temperature: 64°F , 18°C
Dew Point: 55°F , 13°C
Humidity: 73%
Barometer: 30.01 inHg , 1016.3 hPa
Clouds: Clear
Visibility: 10 miles , 16 km
2017/08/22 03:15 KDVO 220315Z AUTO VRB04KT 10SM CLR 18/13 A3001 RMK AO2
 
KAPC - Napa, California, USA
Distance from station: N 73km
Updated: Mon, 21-Aug-2017 7:54pm PDT
Clear
Clear
 Wind from W
Wind: W 16 mph , 26 km/h
Temperature: 66°F , 19°C
Dew Point: 57°F , 14°C
Humidity: 73%
Barometer: 30.00 inHg , 1015.9 hPa
Clouds: Clear
Visibility: 10 miles , 16 km
2017/08/22 02:54 KAPC 220254Z 27014KT 10SM CLR 19/14 A3000 RMK AO2 SLP149 T01940139 51008